sensor_id;sensor_type;location;lat;lon;timestamp;temperature;humidity
30300;DHT22;17110;52.602;12.998;2023-07-20T00:01:33;15.60;99.90
30300;DHT22;17110;52.602;12.998;2023-07-20T00:03:58;15.60;99.90
30300;DHT22;17110;52.602;12.998;2023-07-20T00:06:25;15.50;99.90
30300;DHT22;17110;52.602;12.998;2023-07-20T00:08:51;15.50;99.90
30300;DHT22;17110;52.602;12.998;2023-07-20T00:11:18;15.40;99.90
30300;DHT22;17110;52.602;12.998;2023-07-20T00:13:44;15.40;99.90
30300;DHT22;17110;52.602;12.998;2023-07-20T00:16:09;15.30;99.90
30300;DHT22;17110;52.602;12.998;2023-07-20T00:18:35;15.30;99.90
30300;DHT22;17110;52.602;12.998;2023-07-20T00:21:01;15.30;99.90
30300;DHT22;17110;52.602;12.998;2023-07-20T00:23:27;15.30;99.90
30300;DHT22;17110;52.602;12.998;2023-07-20T00:25:52;15.30;99.90
30300;DHT22;17110;52.602;12.998;2023-07-20T00:28:19;15.30;99.90
30300;DHT22;17110;52.602;12.998;2023-07-20T00:30:45;15.30;99.90
30300;DHT22;17110;52.602;12.998;2023-07-20T00:33:11;15.20;99.90
30300;DHT22;17110;52.602;12.998;2023-07-20T00:35:38;15.20;99.90
30300;DHT22;17110;52.602;12.998;2023-07-20T00:38:04;15.20;99.90
30300;DHT22;17110;52.602;12.998;2023-07-20T00:40:35;15.20;99.90
30300;DHT22;17110;52.602;12.998;2023-07-20T00:43:01;15.20;99.90
30300;DHT22;17110;52.602;12.998;2023-07-20T00:45:28;15.20;99.90
30300;DHT22;17110;52.602;12.998;2023-07-20T00:47:54;15.10;99.90
30300;DHT22;17110;52.602;12.998;2023-07-20T00:50:20;15.10;99.90
30300;DHT22;17110;52.602;12.998;2023-07-20T00:52:46;15.10;99.90
30300;DHT22;17110;52.602;12.998;2023-07-20T00:55:12;15.10;99.90
30300;DHT22;17110;52.602;12.998;2023-07-20T00:57:38;15.00;99.90
30300;DHT22;17110;52.602;12.998;2023-07-20T01:00:07;15.00;99.90
30300;DHT22;17110;52.602;12.998;2023-07-20T01:02:34;14.90;99.90
30300;DHT22;17110;52.602;12.998;2023-07-20T01:05:02;14.90;99.90
30300;DHT22;17110;52.602;12.998;2023-07-20T01:07:32;14.80;99.90
30300;DHT22;17110;52.602;12.998;2023-07-20T01:10:12;14.80;99.90
30300;DHT22;17110;52.602;12.998;2023-07-20T01:12:41;14.80;99.90
30300;DHT22;17110;52.602;12.998;2023-07-20T01:15:08;14.80;99.90
30300;DHT22;17110;52.602;12.998;2023-07-20T01:17:35;14.90;99.90
30300;DHT22;17110;52.602;12.998;2023-07-20T01:20:01;14.90;99.90
30300;DHT22;17110;52.602;12.998;2023-07-20T01:22:47;14.90;99.90
30300;DHT22;17110;52.602;12.998;2023-07-20T01:25:25;14.90;99.90
30300;DHT22;17110;52.602;12.998;2023-07-20T01:28:30;14.90;99.90
30300;DHT22;17110;52.602;12.998;2023-07-20T01:31:14;14.90;99.90
30300;DHT22;17110;52.602;12.998;2023-07-20T01:33:41;14.80;99.90
30300;DHT22;17110;52.602;12.998;2023-07-20T01:36:07;14.70;99.90
30300;DHT22;17110;52.602;12.998;2023-07-20T01:38:34;14.70;99.90
30300;DHT22;17110;52.602;12.998;2023-07-20T01:41:00;14.60;99.90
30300;DHT22;17110;52.602;12.998;2023-07-20T01:43:26;14.50;99.90
30300;DHT22;17110;52.602;12.998;2023-07-20T01:45:52;14.50;99.90
30300;DHT22;17110;52.602;12.998;2023-07-20T01:48:19;14.50;99.90
30300;DHT22;17110;52.602;12.998;2023-07-20T01:50:45;14.50;99.90
30300;DHT22;17110;52.602;12.998;2023-07-20T01:53:11;14.50;99.90
30300;DHT22;17110;52.602;12.998;2023-07-20T01:55:37;14.50;99.90
30300;DHT22;17110;52.602;12.998;2023-07-20T01:58:02;14.60;99.90
30300;DHT22;17110;52.602;12.998;2023-07-20T02:00:28;14.60;99.90
30300;DHT22;17110;52.602;12.998;2023-07-20T02:02:54;14.70;99.90
30300;DHT22;17110;52.602;12.998;2023-07-20T02:05:21;14.70;99.90
30300;DHT22;17110;52.602;12.998;2023-07-20T02:07:47;14.70;99.90
30300;DHT22;17110;52.602;12.998;2023-07-20T02:10:17;14.60;99.90
30300;DHT22;17110;52.602;12.998;2023-07-20T02:12:43;14.50;99.90
30300;DHT22;17110;52.602;12.998;2023-07-20T02:15:09;14.60;99.90
30300;DHT22;17110;52.602;12.998;2023-07-20T02:17:35;14.70;99.90
30300;DHT22;17110;52.602;12.998;2023-07-20T02:20:03;14.70;99.90
30300;DHT22;17110;52.602;12.998;2023-07-20T02:22:30;14.80;99.90
30300;DHT22;17110;52.602;12.998;2023-07-20T02:24:56;14.80;99.90
30300;DHT22;17110;52.602;12.998;2023-07-20T02:27:21;14.90;99.90
30300;DHT22;17110;52.602;12.998;2023-07-20T02:29:47;15.00;99.90
30300;DHT22;17110;52.602;12.998;2023-07-20T02:32:12;15.00;99.90
30300;DHT22;17110;52.602;12.998;2023-07-20T02:34:38;15.00;99.90
30300;DHT22;17110;52.602;12.998;2023-07-20T02:37:04;15.10;99.90
30300;DHT22;17110;52.602;12.998;2023-07-20T02:39:31;15.20;99.90
30300;DHT22;17110;52.602;12.998;2023-07-20T02:41:57;15.20;99.90
30300;DHT22;17110;52.602;12.998;2023-07-20T02:44:23;15.20;99.90
30300;DHT22;17110;52.602;12.998;2023-07-20T02:46:48;15.20;99.90
30300;DHT22;17110;52.602;12.998;2023-07-20T02:49:14;15.30;99.90
30300;DHT22;17110;52.602;12.998;2023-07-20T02:51:40;15.30;99.90
30300;DHT22;17110;52.602;12.998;2023-07-20T02:54:05;15.20;99.90
30300;DHT22;17110;52.602;12.998;2023-07-20T02:56:32;15.20;99.90
30300;DHT22;17110;52.602;12.998;2023-07-20T02:58:58;15.10;99.90
30300;DHT22;17110;52.602;12.998;2023-07-20T03:01:24;15.10;99.90
30300;DHT22;17110;52.602;12.998;2023-07-20T03:03:49;15.20;99.90
30300;DHT22;17110;52.602;12.998;2023-07-20T03:06:15;15.20;99.90
30300;DHT22;17110;52.602;12.998;2023-07-20T03:08:41;15.20;99.90
30300;DHT22;17110;52.602;12.998;2023-07-20T03:11:07;15.30;99.90
30300;DHT22;17110;52.602;12.998;2023-07-20T03:13:34;15.30;99.90
30300;DHT22;17110;52.602;12.998;2023-07-20T03:16:00;15.40;99.90
30300;DHT22;17110;52.602;12.998;2023-07-20T03:18:27;15.40;99.90
30300;DHT22;17110;52.602;12.998;2023-07-20T03:20:54;15.40;99.90
30300;DHT22;17110;52.602;12.998;2023-07-20T03:23:20;15.30;99.90
30300;DHT22;17110;52.602;12.998;2023-07-20T03:25:45;15.30;99.90
30300;DHT22;17110;52.602;12.998;2023-07-20T03:28:11;15.30;99.90
30300;DHT22;17110;52.602;12.998;2023-07-20T03:30:38;15.30;99.90
30300;DHT22;17110;52.602;12.998;2023-07-20T03:33:04;15.30;99.90
30300;DHT22;17110;52.602;12.998;2023-07-20T03:35:30;15.30;99.90
30300;DHT22;17110;52.602;12.998;2023-07-20T03:37:56;15.20;99.90
30300;DHT22;17110;52.602;12.998;2023-07-20T03:40:21;15.20;99.90
30300;DHT22;17110;52.602;12.998;2023-07-20T03:42:47;15.20;99.90
30300;DHT22;17110;52.602;12.998;2023-07-20T03:45:13;15.30;99.90
30300;DHT22;17110;52.602;12.998;2023-07-20T03:47:40;15.20;99.90
30300;DHT22;17110;52.602;12.998;2023-07-20T03:50:06;15.20;99.90
30300;DHT22;17110;52.602;12.998;2023-07-20T03:52:32;15.20;99.90
30300;DHT22;17110;52.602;12.998;2023-07-20T03:54:58;15.10;99.90
30300;DHT22;17110;52.602;12.998;2023-07-20T03:57:24;15.10;99.90
30300;DHT22;17110;52.602;12.998;2023-07-20T03:59:49;15.20;99.90
30300;DHT22;17110;52.602;12.998;2023-07-20T04:02:15;15.20;99.90
30300;DHT22;17110;52.602;12.998;2023-07-20T04:04:43;15.30;99.90
30300;DHT22;17110;52.602;12.998;2023-07-20T04:07:09;15.30;99.90
30300;DHT22;17110;52.602;12.998;2023-07-20T04:09:35;15.30;99.90
30300;DHT22;17110;52.602;12.998;2023-07-20T04:12:00;15.20;99.90
30300;DHT22;17110;52.602;12.998;2023-07-20T04:14:26;15.20;99.90
30300;DHT22;17110;52.602;12.998;2023-07-20T04:16:52;15.30;99.90
30300;DHT22;17110;52.602;12.998;2023-07-20T04:19:17;15.30;99.90
30300;DHT22;17110;52.602;12.998;2023-07-20T04:21:44;15.40;99.90
30300;DHT22;17110;52.602;12.998;2023-07-20T04:24:10;15.40;99.90
30300;DHT22;17110;52.602;12.998;2023-07-20T04:26:37;15.40;99.90
30300;DHT22;17110;52.602;12.998;2023-07-20T04:29:03;15.40;99.90
30300;DHT22;17110;52.602;12.998;2023-07-20T04:31:35;15.50;99.90
30300;DHT22;17110;52.602;12.998;2023-07-20T04:34:02;15.50;99.90
30300;DHT22;17110;52.602;12.998;2023-07-20T04:36:28;15.50;99.90
30300;DHT22;17110;52.602;12.998;2023-07-20T04:38:55;15.60;99.90
30300;DHT22;17110;52.602;12.998;2023-07-20T04:41:22;15.70;99.90
30300;DHT22;17110;52.602;12.998;2023-07-20T04:43:50;15.70;99.90
30300;DHT22;17110;52.602;12.998;2023-07-20T04:46:23;15.80;99.90
30300;DHT22;17110;52.602;12.998;2023-07-20T04:48:49;15.70;99.90
30300;DHT22;17110;52.602;12.998;2023-07-20T04:51:16;15.70;99.90
30300;DHT22;17110;52.602;12.998;2023-07-20T04:53:41;15.80;99.90
30300;DHT22;17110;52.602;12.998;2023-07-20T04:56:10;15.70;99.90
30300;DHT22;17110;52.602;12.998;2023-07-20T04:58:36;15.70;99.90
30300;DHT22;17110;52.602;12.998;2023-07-20T05:01:01;15.60;99.90
30300;DHT22;17110;52.602;12.998;2023-07-20T05:03:27;15.70;99.90
30300;DHT22;17110;52.602;12.998;2023-07-20T05:05:53;15.70;99.90
30300;DHT22;17110;52.602;12.998;2023-07-20T05:08:19;15.70;99.90
30300;DHT22;17110;52.602;12.998;2023-07-20T05:10:46;15.70;99.90
30300;DHT22;17110;52.602;12.998;2023-07-20T05:13:13;15.70;99.90
30300;DHT22;17110;52.602;12.998;2023-07-20T05:15:39;15.60;99.90
30300;DHT22;17110;52.602;12.998;2023-07-20T05:18:07;15.50;99.90
30300;DHT22;17110;52.602;12.998;2023-07-20T05:20:34;15.50;99.90
30300;DHT22;17110;52.602;12.998;2023-07-20T05:23:00;15.40;99.90
30300;DHT22;17110;52.602;12.998;2023-07-20T05:25:26;15.60;99.90
30300;DHT22;17110;52.602;12.998;2023-07-20T05:27:52;15.70;99.90
30300;DHT22;17110;52.602;12.998;2023-07-20T05:30:19;16.30;99.90
30300;DHT22;17110;52.602;12.998;2023-07-20T05:32:44;17.60;99.90
30300;DHT22;17110;52.602;12.998;2023-07-20T05:35:10;19.60;99.90
30300;DHT22;17110;52.602;12.998;2023-07-20T05:37:36;20.30;99.90
30300;DHT22;17110;52.602;12.998;2023-07-20T05:40:01;21.50;99.90
30300;DHT22;17110;52.602;12.998;2023-07-20T05:42:27;21.80;99.90
30300;DHT22;17110;52.602;12.998;2023-07-20T05:44:52;21.00;99.90
30300;DHT22;17110;52.602;12.998;2023-07-20T05:47:19;19.80;99.90
30300;DHT22;17110;52.602;12.998;2023-07-20T05:49:45;18.90;99.90
30300;DHT22;17110;52.602;12.998;2023-07-20T05:52:11;18.40;99.90
30300;DHT22;17110;52.602;12.998;2023-07-20T05:54:37;18.20;99.90
30300;DHT22;17110;52.602;12.998;2023-07-20T05:57:02;18.80;99.90
30300;DHT22;17110;52.602;12.998;2023-07-20T05:59:28;19.60;99.90
30300;DHT22;17110;52.602;12.998;2023-07-20T06:01:54;20.80;99.90
30300;DHT22;17110;52.602;12.998;2023-07-20T06:04:21;20.70;99.90
30300;DHT22;17110;52.602;12.998;2023-07-20T06:06:46;21.60;99.90
30300;DHT22;17110;52.602;12.998;2023-07-20T06:09:12;22.70;99.90
30300;DHT22;17110;52.602;12.998;2023-07-20T06:11:38;24.00;99.90
30300;DHT22;17110;52.602;12.998;2023-07-20T06:14:03;24.60;99.90
30300;DHT22;17110;52.602;12.998;2023-07-20T06:16:29;23.50;99.90
30300;DHT22;17110;52.602;12.998;2023-07-20T06:18:55;24.00;99.90
30300;DHT22;17110;52.602;12.998;2023-07-20T06:21:22;25.20;99.90
30300;DHT22;17110;52.602;12.998;2023-07-20T06:23:48;24.60;99.90
30300;DHT22;17110;52.602;12.998;2023-07-20T06:26:14;23.80;99.90
30300;DHT22;17110;52.602;12.998;2023-07-20T06:28:39;22.60;99.90
30300;DHT22;17110;52.602;12.998;2023-07-20T06:31:05;22.30;99.90
30300;DHT22;17110;52.602;12.998;2023-07-20T06:33:30;22.10;99.90
30300;DHT22;17110;52.602;12.998;2023-07-20T06:35:56;23.50;99.90
30300;DHT22;17110;52.602;12.998;2023-07-20T06:38:23;24.60;99.90
30300;DHT22;17110;52.602;12.998;2023-07-20T06:40:49;25.50;99.90
30300;DHT22;17110;52.602;12.998;2023-07-20T06:43:15;25.90;99.90
30300;DHT22;17110;52.602;12.998;2023-07-20T06:45:41;25.00;99.90
30300;DHT22;17110;52.602;12.998;2023-07-20T06:48:06;24.30;99.90
30300;DHT22;17110;52.602;12.998;2023-07-20T06:50:32;25.40;99.90
30300;DHT22;17110;52.602;12.998;2023-07-20T06:52:58;23.50;99.90
30300;DHT22;17110;52.602;12.998;2023-07-20T06:55:25;22.10;99.90
30300;DHT22;17110;52.602;12.998;2023-07-20T06:57:50;21.70;99.90
30300;DHT22;17110;52.602;12.998;2023-07-20T07:00:16;21.70;99.90
30300;DHT22;17110;52.602;12.998;2023-07-20T07:02:42;21.60;99.90
30300;DHT22;17110;52.602;12.998;2023-07-20T07:05:08;21.30;99.90
30300;DHT22;17110;52.602;12.998;2023-07-20T07:07:33;22.20;99.90
30300;DHT22;17110;52.602;12.998;2023-07-20T07:10:00;22.70;99.90
30300;DHT22;17110;52.602;12.998;2023-07-20T07:12:27;21.80;99.90
30300;DHT22;17110;52.602;12.998;2023-07-20T07:14:52;20.90;99.90
30300;DHT22;17110;52.602;12.998;2023-07-20T07:17:18;20.90;99.90
30300;DHT22;17110;52.602;12.998;2023-07-20T07:19:43;21.40;99.90
30300;DHT22;17110;52.602;12.998;2023-07-20T07:22:09;22.30;99.90
30300;DHT22;17110;52.602;12.998;2023-07-20T07:24:35;23.00;99.90
30300;DHT22;17110;52.602;12.998;2023-07-20T07:27:00;21.70;99.90
30300;DHT22;17110;52.602;12.998;2023-07-20T07:29:27;21.00;99.90
30300;DHT22;17110;52.602;12.998;2023-07-20T07:31:53;20.70;99.90
30300;DHT22;17110;52.602;12.998;2023-07-20T07:34:19;20.40;99.90
30300;DHT22;17110;52.602;12.998;2023-07-20T07:36:44;20.40;99.90
30300;DHT22;17110;52.602;12.998;2023-07-20T07:39:10;20.40;99.90
30300;DHT22;17110;52.602;12.998;2023-07-20T07:41:36;20.40;99.90
30300;DHT22;17110;52.602;12.998;2023-07-20T07:44:02;20.50;99.90
30300;DHT22;17110;52.602;12.998;2023-07-20T07:46:29;20.70;99.90
30300;DHT22;17110;52.602;12.998;2023-07-20T07:48:54;21.20;99.90
30300;DHT22;17110;52.602;12.998;2023-07-20T07:51:20;21.40;99.90
30300;DHT22;17110;52.602;12.998;2023-07-20T07:53:46;21.70;99.90
30300;DHT22;17110;52.602;12.998;2023-07-20T07:56:11;21.70;99.90
30300;DHT22;17110;52.602;12.998;2023-07-20T07:58:37;21.60;99.90
30300;DHT22;17110;52.602;12.998;2023-07-20T08:01:03;21.40;99.90
30300;DHT22;17110;52.602;12.998;2023-07-20T08:03:31;21.50;99.90
30300;DHT22;17110;52.602;12.998;2023-07-20T08:05:57;21.60;99.90
30300;DHT22;17110;52.602;12.998;2023-07-20T08:08:22;21.40;99.90
30300;DHT22;17110;52.602;12.998;2023-07-20T08:10:48;21.30;99.90
30300;DHT22;17110;52.602;12.998;2023-07-20T08:13:14;21.00;99.90
30300;DHT22;17110;52.602;12.998;2023-07-20T08:15:39;20.50;99.90
30300;DHT22;17110;52.602;12.998;2023-07-20T08:18:05;20.50;99.90
30300;DHT22;17110;52.602;12.998;2023-07-20T08:20:32;20.90;99.90
30300;DHT22;17110;52.602;12.998;2023-07-20T08:22:58;21.80;99.90
30300;DHT22;17110;52.602;12.998;2023-07-20T08:25:24;21.40;99.90
30300;DHT22;17110;52.602;12.998;2023-07-20T08:27:49;21.20;99.90
30300;DHT22;17110;52.602;12.998;2023-07-20T08:30:15;20.70;99.90
30300;DHT22;17110;52.602;12.998;2023-07-20T08:32:40;20.40;99.90
30300;DHT22;17110;52.602;12.998;2023-07-20T08:35:07;20.40;99.90
30300;DHT22;17110;52.602;12.998;2023-07-20T08:37:34;20.60;99.90
30300;DHT22;17110;52.602;12.998;2023-07-20T08:40:04;20.80;99.90
30300;DHT22;17110;52.602;12.998;2023-07-20T08:42:36;21.00;99.90
30300;DHT22;17110;52.602;12.998;2023-07-20T08:45:06;20.70;99.90
30300;DHT22;17110;52.602;12.998;2023-07-20T08:47:32;20.20;99.90
30300;DHT22;17110;52.602;12.998;2023-07-20T08:49:58;19.50;99.90
30300;DHT22;17110;52.602;12.998;2023-07-20T08:52:24;19.70;99.90
30300;DHT22;17110;52.602;12.998;2023-07-20T08:54:52;19.40;99.90
30300;DHT22;17110;52.602;12.998;2023-07-20T08:57:18;19.00;99.90
30300;DHT22;17110;52.602;12.998;2023-07-20T08:59:46;18.90;99.90
30300;DHT22;17110;52.602;12.998;2023-07-20T09:02:16;18.70;99.90
30300;DHT22;17110;52.602;12.998;2023-07-20T09:04:42;18.50;99.90
30300;DHT22;17110;52.602;12.998;2023-07-20T09:07:07;18.30;99.90
30300;DHT22;17110;52.602;12.998;2023-07-20T09:09:39;18.50;99.90
30300;DHT22;17110;52.602;12.998;2023-07-20T09:12:13;18.60;99.90
30300;DHT22;17110;52.602;12.998;2023-07-20T09:14:38;18.70;99.90
30300;DHT22;17110;52.602;12.998;2023-07-20T09:17:04;18.70;99.90
30300;DHT22;17110;52.602;12.998;2023-07-20T09:19:30;18.70;99.90
30300;DHT22;17110;52.602;12.998;2023-07-20T09:21:56;19.00;99.90
30300;DHT22;17110;52.602;12.998;2023-07-20T09:24:21;19.40;99.90
30300;DHT22;17110;52.602;12.998;2023-07-20T09:26:48;19.80;99.90
30300;DHT22;17110;52.602;12.998;2023-07-20T09:29:18;19.90;99.90
30300;DHT22;17110;52.602;12.998;2023-07-20T09:31:58;20.00;99.90
30300;DHT22;17110;52.602;12.998;2023-07-20T09:34:24;19.70;99.90
30300;DHT22;17110;52.602;12.998;2023-07-20T09:36:51;19.50;99.90
30300;DHT22;17110;52.602;12.998;2023-07-20T09:39:16;19.50;99.90
30300;DHT22;17110;52.602;12.998;2023-07-20T09:41:42;19.30;99.90
30300;DHT22;17110;52.602;12.998;2023-07-20T09:44:10;19.00;99.90
30300;DHT22;17110;52.602;12.998;2023-07-20T09:46:45;19.00;99.90
30300;DHT22;17110;52.602;12.998;2023-07-20T09:49:11;19.10;99.90
30300;DHT22;17110;52.602;12.998;2023-07-20T09:51:37;19.00;99.90
30300;DHT22;17110;52.602;12.998;2023-07-20T09:54:03;19.30;99.90
30300;DHT22;17110;52.602;12.998;2023-07-20T09:56:30;19.70;99.90
30300;DHT22;17110;52.602;12.998;2023-07-20T09:58:56;20.10;99.90
30300;DHT22;17110;52.602;12.998;2023-07-20T10:01:22;20.30;99.90
30300;DHT22;17110;52.602;12.998;2023-07-20T10:03:52;20.50;99.90
30300;DHT22;17110;52.602;12.998;2023-07-20T10:06:23;19.80;99.90
30300;DHT22;17110;52.602;12.998;2023-07-20T10:08:49;19.80;99.90
30300;DHT22;17110;52.602;12.998;2023-07-20T10:11:17;19.80;99.90
30300;DHT22;17110;52.602;12.998;2023-07-20T10:13:44;19.80;99.90
30300;DHT22;17110;52.602;12.998;2023-07-20T10:16:12;19.90;99.90
30300;DHT22;17110;52.602;12.998;2023-07-20T10:18:46;20.10;99.90
30300;DHT22;17110;52.602;12.998;2023-07-20T10:21:13;20.30;99.90
30300;DHT22;17110;52.602;12.998;2023-07-20T10:23:42;20.50;99.90
30300;DHT22;17110;52.602;12.998;2023-07-20T10:26:09;20.60;99.90
30300;DHT22;17110;52.602;12.998;2023-07-20T10:28:38;20.90;99.90
30300;DHT22;17110;52.602;12.998;2023-07-20T10:31:03;21.20;99.90
30300;DHT22;17110;52.602;12.998;2023-07-20T10:33:29;21.10;99.90
30300;DHT22;17110;52.602;12.998;2023-07-20T10:35:57;21.20;99.90
30300;DHT22;17110;52.602;12.998;2023-07-20T10:38:40;21.10;99.90
30300;DHT22;17110;52.602;12.998;2023-07-20T10:41:16;21.30;99.90
30300;DHT22;17110;52.602;12.998;2023-07-20T10:43:42;21.50;99.90
30300;DHT22;17110;52.602;12.998;2023-07-20T10:46:10;21.50;99.90
30300;DHT22;17110;52.602;12.998;2023-07-20T10:48:59;21.70;99.90
30300;DHT22;17110;52.602;12.998;2023-07-20T10:51:28;21.80;99.90
30300;DHT22;17110;52.602;12.998;2023-07-20T10:53:56;22.00;99.90
30300;DHT22;17110;52.602;12.998;2023-07-20T10:56:23;22.10;99.90
30300;DHT22;17110;52.602;12.998;2023-07-20T10:58:58;22.50;99.90
30300;DHT22;17110;52.602;12.998;2023-07-20T11:01:31;23.20;99.90
30300;DHT22;17110;52.602;12.998;2023-07-20T11:03:58;23.80;99.90
30300;DHT22;17110;52.602;12.998;2023-07-20T11:06:31;24.20;99.90
30300;DHT22;17110;52.602;12.998;2023-07-20T11:09:05;24.30;99.90
30300;DHT22;17110;52.602;12.998;2023-07-20T11:11:32;23.60;99.90
30300;DHT22;17110;52.602;12.998;2023-07-20T11:13:59;22.80;99.90
30300;DHT22;17110;52.602;12.998;2023-07-20T11:16:46;21.90;99.90
30300;DHT22;17110;52.602;12.998;2023-07-20T11:19:17;20.70;99.90
30300;DHT22;17110;52.602;12.998;2023-07-20T11:21:44;20.30;99.90
30300;DHT22;17110;52.602;12.998;2023-07-20T11:24:11;19.50;99.90
30300;DHT22;17110;52.602;12.998;2023-07-20T11:26:44;19.40;99.90
30300;DHT22;17110;52.602;12.998;2023-07-20T11:29:10;19.20;99.90
30300;DHT22;17110;52.602;12.998;2023-07-20T11:31:37;19.30;99.90
30300;DHT22;17110;52.602;12.998;2023-07-20T11:34:03;19.30;99.90
30300;DHT22;17110;52.602;12.998;2023-07-20T11:36:28;19.40;99.90
30300;DHT22;17110;52.602;12.998;2023-07-20T11:38:54;19.70;99.90
30300;DHT22;17110;52.602;12.998;2023-07-20T11:41:21;20.00;99.90
30300;DHT22;17110;52.602;12.998;2023-07-20T11:43:47;20.10;99.90
30300;DHT22;17110;52.602;12.998;2023-07-20T11:46:25;20.20;99.90
30300;DHT22;17110;52.602;12.998;2023-07-20T11:49:13;20.10;99.90
30300;DHT22;17110;52.602;12.998;2023-07-20T11:51:40;20.20;99.90
30300;DHT22;17110;52.602;12.998;2023-07-20T11:54:07;20.00;99.90
30300;DHT22;17110;52.602;12.998;2023-07-20T11:56:44;19.90;99.90
30300;DHT22;17110;52.602;12.998;2023-07-20T11:59:37;19.60;99.90
30300;DHT22;17110;52.602;12.998;2023-07-20T12:02:06;20.00;99.90
30300;DHT22;17110;52.602;12.998;2023-07-20T12:07:13;20.90;99.90
30300;DHT22;17110;52.602;12.998;2023-07-20T12:09:39;21.00;99.90
30300;DHT22;17110;52.602;12.998;2023-07-20T12:12:10;21.90;99.90
30300;DHT22;17110;52.602;12.998;2023-07-20T12:14:36;22.30;97.10
30300;DHT22;17110;52.602;12.998;2023-07-20T12:17:02;22.70;95.30
30300;DHT22;17110;52.602;12.998;2023-07-20T12:19:29;23.20;95.50
30300;DHT22;17110;52.602;12.998;2023-07-20T12:21:58;23.60;95.30
30300;DHT22;17110;52.602;12.998;2023-07-20T12:24:23;23.70;93.20
30300;DHT22;17110;52.602;12.998;2023-07-20T12:26:56;22.90;95.00
30300;DHT22;17110;52.602;12.998;2023-07-20T12:29:23;22.30;94.70
30300;DHT22;17110;52.602;12.998;2023-07-20T12:31:49;22.20;96.00
30300;DHT22;17110;52.602;12.998;2023-07-20T12:34:23;22.20;97.10
30300;DHT22;17110;52.602;12.998;2023-07-20T12:36:51;22.00;96.60
30300;DHT22;17110;52.602;12.998;2023-07-20T12:39:17;22.60;97.00
30300;DHT22;17110;52.602;12.998;2023-07-20T12:41:47;22.90;96.20
30300;DHT22;17110;52.602;12.998;2023-07-20T12:44:14;23.10;97.40
30300;DHT22;17110;52.602;12.998;2023-07-20T12:46:44;23.60;96.70
30300;DHT22;17110;52.602;12.998;2023-07-20T12:49:20;23.90;95.20
30300;DHT22;17110;52.602;12.998;2023-07-20T12:51:49;23.40;94.10
30300;DHT22;17110;52.602;12.998;2023-07-20T12:54:15;23.20;95.40
30300;DHT22;17110;52.602;12.998;2023-07-20T12:56:46;22.50;95.10
30300;DHT22;17110;52.602;12.998;2023-07-20T12:59:13;22.30;96.10
30300;DHT22;17110;52.602;12.998;2023-07-20T13:01:39;22.50;96.10
30300;DHT22;17110;52.602;12.998;2023-07-20T13:04:09;22.50;95.40
30300;DHT22;17110;52.602;12.998;2023-07-20T13:09:39;23.20;94.90
30300;DHT22;17110;52.602;12.998;2023-07-20T13:12:06;22.90;93.80
30300;DHT22;17110;52.602;12.998;2023-07-20T13:14:32;23.00;94.50
30300;DHT22;17110;52.602;12.998;2023-07-20T13:16:57;22.70;93.80
30300;DHT22;17110;52.602;12.998;2023-07-20T13:19:25;22.60;94.80
30300;DHT22;17110;52.602;12.998;2023-07-20T13:21:50;22.30;95.30
30300;DHT22;17110;52.602;12.998;2023-07-20T13:24:28;22.30;95.10
30300;DHT22;17110;52.602;12.998;2023-07-20T13:26:55;22.40;94.60
30300;DHT22;17110;52.602;12.998;2023-07-20T13:29:21;23.00;95.50
30300;DHT22;17110;52.602;12.998;2023-07-20T13:31:49;23.60;94.30
30300;DHT22;17110;52.602;12.998;2023-07-20T13:34:18;24.40;94.40
30300;DHT22;17110;52.602;12.998;2023-07-20T13:36:48;24.90;94.20
30300;DHT22;17110;52.602;12.998;2023-07-20T13:39:14;25.30;92.30
30300;DHT22;17110;52.602;12.998;2023-07-20T13:41:39;25.00;91.20
30300;DHT22;17110;52.602;12.998;2023-07-20T13:44:05;25.20;91.30
30300;DHT22;17110;52.602;12.998;2023-07-20T13:46:30;24.70;88.40
30300;DHT22;17110;52.602;12.998;2023-07-20T13:48:56;24.10;90.50
30300;DHT22;17110;52.602;12.998;2023-07-20T13:51:22;24.00;91.60
30300;DHT22;17110;52.602;12.998;2023-07-20T13:53:49;23.60;90.80
30300;DHT22;17110;52.602;12.998;2023-07-20T13:56:14;23.20;92.60
30300;DHT22;17110;52.602;12.998;2023-07-20T13:58:41;22.80;90.90
30300;DHT22;17110;52.602;12.998;2023-07-20T14:01:07;22.50;91.50
30300;DHT22;17110;52.602;12.998;2023-07-20T14:03:33;22.60;92.30
30300;DHT22;17110;52.602;12.998;2023-07-20T14:05:59;23.00;92.30
30300;DHT22;17110;52.602;12.998;2023-07-20T14:08:24;23.30;92.10
30300;DHT22;17110;52.602;12.998;2023-07-20T14:10:51;23.30;91.40
30300;DHT22;17110;52.602;12.998;2023-07-20T14:13:19;23.00;92.00
30300;DHT22;17110;52.602;12.998;2023-07-20T14:15:44;22.50;92.20
30300;DHT22;17110;52.602;12.998;2023-07-20T14:18:10;22.30;92.50
30300;DHT22;17110;52.602;12.998;2023-07-20T14:20:36;22.20;92.00
30300;DHT22;17110;52.602;12.998;2023-07-20T14:23:02;22.50;93.00
30300;DHT22;17110;52.602;12.998;2023-07-20T14:25:28;22.70;91.90
30300;DHT22;17110;52.602;12.998;2023-07-20T14:28:21;22.70;92.50
30300;DHT22;17110;52.602;12.998;2023-07-20T14:31:01;22.60;91.40
30300;DHT22;17110;52.602;12.998;2023-07-20T14:33:55;22.90;91.80
30300;DHT22;17110;52.602;12.998;2023-07-20T14:36:26;23.10;91.40
30300;DHT22;17110;52.602;12.998;2023-07-20T14:39:39;23.50;88.20
30300;DHT22;17110;52.602;12.998;2023-07-20T14:42:25;23.70;89.80
30300;DHT22;17110;52.602;12.998;2023-07-20T14:45:13;24.00;87.30
30300;DHT22;17110;52.602;12.998;2023-07-20T14:47:50;24.00;90.10
30300;DHT22;17110;52.602;12.998;2023-07-20T14:50:21;24.00;86.50
30300;DHT22;17110;52.602;12.998;2023-07-20T14:53:08;23.20;87.30
30300;DHT22;17110;52.602;12.998;2023-07-20T14:55:38;23.60;88.50
30300;DHT22;17110;52.602;12.998;2023-07-20T14:58:12;23.60;88.70
30300;DHT22;17110;52.602;12.998;2023-07-20T15:00:54;23.50;88.50
30300;DHT22;17110;52.602;12.998;2023-07-20T15:03:20;23.00;87.60
30300;DHT22;17110;52.602;12.998;2023-07-20T15:05:47;22.70;90.00
30300;DHT22;17110;52.602;12.998;2023-07-20T15:08:13;22.60;90.20
30300;DHT22;17110;52.602;12.998;2023-07-20T15:10:39;22.40;91.00
30300;DHT22;17110;52.602;12.998;2023-07-20T15:13:05;22.20;91.10
30300;DHT22;17110;52.602;12.998;2023-07-20T15:15:31;22.30;90.50
30300;DHT22;17110;52.602;12.998;2023-07-20T15:17:58;22.20;90.80
30300;DHT22;17110;52.602;12.998;2023-07-20T15:20:24;22.10;90.90
30300;DHT22;17110;52.602;12.998;2023-07-20T15:22:49;22.00;90.80
30300;DHT22;17110;52.602;12.998;2023-07-20T15:25:18;21.90;91.10